sensor_id;sensor_type;location;lat;lon;timestamp;pressure;altitude;pressure_sealevel;temperature;humidity
75609;BME280;64194;51.044;13.780;2023-03-23T00:03:56;99593.88;;;12.55;58.33
75609;BME280;64194;51.044;13.780;2023-03-23T00:07:57;99595.69;;;12.66;57.55
75609;BME280;64194;51.044;13.780;2023-03-23T00:12:00;99588.53;;;12.67;58.16
75609;BME280;64194;51.044;13.780;2023-03-23T00:16:05;99591.56;;;12.73;58.21
75609;BME280;64194;51.044;13.780;2023-03-23T00:20:06;99596.16;;;12.71;58.00
75609;BME280;64194;51.044;13.780;2023-03-23T00:24:13;99599.78;;;12.81;58.09
75609;BME280;64194;51.044;13.780;2023-03-23T00:28:16;99595.66;;;12.77;58.14
75609;BME280;64194;51.044;13.780;2023-03-23T00:32:21;99595.31;;;12.82;58.47
75609;BME280;64194;51.044;13.780;2023-03-23T00:36:28;99601.81;;;12.89;57.86
75609;BME280;64194;51.044;13.780;2023-03-23T00:40:32;99590.91;;;12.92;57.63
75609;BME280;64194;51.044;13.780;2023-03-23T00:44:35;99590.06;;;12.91;57.47
75609;BME280;64194;51.044;13.780;2023-03-23T00:48:37;99588.09;;;12.93;57.56
75609;BME280;64194;51.044;13.780;2023-03-23T00:52:44;99583.50;;;12.95;57.97
75609;BME280;64194;51.044;13.780;2023-03-23T00:56:45;99574.41;;;12.98;57.98
75609;BME280;64194;51.044;13.780;2023-03-23T01:00:46;99577.78;;;13.00;58.06
75609;BME280;64194;51.044;13.780;2023-03-23T01:04:47;99567.13;;;13.00;57.54
75609;BME280;64194;51.044;13.780;2023-03-23T01:08:52;99561.00;;;13.09;57.08
75609;BME280;64194;51.044;13.780;2023-03-23T01:12:54;99569.53;;;13.03;57.46
75609;BME280;64194;51.044;13.780;2023-03-23T01:16:56;99557.66;;;13.07;57.20
75609;BME280;64194;51.044;13.780;2023-03-23T01:20:57;99545.41;;;13.05;56.99
75609;BME280;64194;51.044;13.780;2023-03-23T01:24:57;99538.25;;;13.05;57.01
75609;BME280;64194;51.044;13.780;2023-03-23T01:28:58;99535.84;;;13.13;56.44
75609;BME280;64194;51.044;13.780;2023-03-23T01:33:00;99536.03;;;13.10;56.39
75609;BME280;64194;51.044;13.780;2023-03-23T01:37:01;99527.09;;;13.11;56.27
75609;BME280;64194;51.044;13.780;2023-03-23T01:41:03;99526.59;;;13.17;55.43
75609;BME280;64194;51.044;13.780;2023-03-23T01:49:25;99508.50;;;13.21;54.79
75609;BME280;64194;51.044;13.780;2023-03-23T01:53:31;99514.56;;;13.23;54.31
75609;BME280;64194;51.044;13.780;2023-03-23T01:57:35;99507.81;;;13.19;54.50
75609;BME280;64194;51.044;13.780;2023-03-23T02:01:36;99504.75;;;13.23;53.90
75609;BME280;64194;51.044;13.780;2023-03-23T02:05:43;99514.69;;;13.21;54.20
75609;BME280;64194;51.044;13.780;2023-03-23T02:09:50;99515.66;;;13.20;53.81
75609;BME280;64194;51.044;13.780;2023-03-23T02:13:51;99512.03;;;13.21;53.56
75609;BME280;64194;51.044;13.780;2023-03-23T02:18:27;99505.59;;;13.24;53.09
75609;BME280;64194;51.044;13.780;2023-03-23T02:31:09;99497.94;;;13.30;52.43
75609;BME280;64194;51.044;13.780;2023-03-23T02:35:20;99507.75;;;13.30;52.46
75609;BME280;64194;51.044;13.780;2023-03-23T02:39:39;99504.94;;;13.31;52.24
75609;BME280;64194;51.044;13.780;2023-03-23T02:43:44;99514.06;;;13.29;52.14
75609;BME280;64194;51.044;13.780;2023-03-23T02:47:46;99505.34;;;13.27;52.08
75609;BME280;64194;51.044;13.780;2023-03-23T02:51:49;99507.41;;;13.23;52.40
75609;BME280;64194;51.044;13.780;2023-03-23T02:55:53;99500.28;;;13.24;52.06
75609;BME280;64194;51.044;13.780;2023-03-23T02:59:57;99499.88;;;13.28;51.68
75609;BME280;64194;51.044;13.780;2023-03-23T03:04:00;99495.06;;;13.22;51.87
75609;BME280;64194;51.044;13.780;2023-03-23T03:12:40;99495.69;;;13.15;52.58
75609;BME280;64194;51.044;13.780;2023-03-23T03:20:59;99492.34;;;13.13;52.99
75609;BME280;64194;51.044;13.780;2023-03-23T03:25:02;99485.88;;;13.15;53.09
75609;BME280;64194;51.044;13.780;2023-03-23T03:29:05;99486.16;;;13.12;53.25
75609;BME280;64194;51.044;13.780;2023-03-23T03:33:11;99494.09;;;13.23;53.04
75609;BME280;64194;51.044;13.780;2023-03-23T03:37:13;99490.44;;;13.24;53.02
75609;BME280;64194;51.044;13.780;2023-03-23T03:41:17;99483.41;;;13.23;53.57
75609;BME280;64194;51.044;13.780;2023-03-23T03:45:20;99480.03;;;13.21;53.52
75609;BME280;64194;51.044;13.780;2023-03-23T03:49:20;99480.63;;;13.25;53.26
75609;BME280;64194;51.044;13.780;2023-03-23T03:53:23;99477.53;;;13.20;53.97
75609;BME280;64194;51.044;13.780;2023-03-23T03:57:24;99482.38;;;13.35;52.79
75609;BME280;64194;51.044;13.780;2023-03-23T04:01:39;99482.06;;;13.29;53.05
75609;BME280;64194;51.044;13.780;2023-03-23T04:05:40;99485.38;;;13.21;53.73
75609;BME280;64194;51.044;13.780;2023-03-23T04:09:45;99481.72;;;13.22;53.59
75609;BME280;64194;51.044;13.780;2023-03-23T04:13:48;99481.00;;;13.20;53.61
75609;BME280;64194;51.044;13.780;2023-03-23T04:17:53;99472.47;;;13.26;53.68
75609;BME280;64194;51.044;13.780;2023-03-23T04:21:54;99465.50;;;13.25;53.36
75609;BME280;64194;51.044;13.780;2023-03-23T04:25:56;99465.50;;;13.25;53.76
75609;BME280;64194;51.044;13.780;2023-03-23T04:30:03;99462.09;;;13.23;53.80
75609;BME280;64194;51.044;13.780;2023-03-23T04:34:31;99463.19;;;13.21;54.03
75609;BME280;64194;51.044;13.780;2023-03-23T04:38:33;99465.03;;;13.09;54.40
75609;BME280;64194;51.044;13.780;2023-03-23T04:42:43;99464.06;;;13.10;54.09
75609;BME280;64194;51.044;13.780;2023-03-23T04:47:05;99461.91;;;13.04;54.37
75609;BME280;64194;51.044;13.780;2023-03-23T04:51:14;99457.75;;;13.11;54.04
75609;BME280;64194;51.044;13.780;2023-03-23T04:55:18;99457.44;;;13.05;54.59
75609;BME280;64194;51.044;13.780;2023-03-23T04:59:27;99464.34;;;13.07;54.73
75609;BME280;64194;51.044;13.780;2023-03-23T05:03:54;99452.44;;;13.11;54.13
75609;BME280;64194;51.044;13.780;2023-03-23T05:07:55;99446.78;;;13.05;54.64
75609;BME280;64194;51.044;13.780;2023-03-23T05:12:04;99448.22;;;13.09;54.25
75609;BME280;64194;51.044;13.780;2023-03-23T05:16:05;99449.03;;;13.09;54.21
75609;BME280;64194;51.044;13.780;2023-03-23T05:20:11;99458.03;;;13.08;54.32
75609;BME280;64194;51.044;13.780;2023-03-23T05:24:16;99463.09;;;13.11;54.22
75609;BME280;64194;51.044;13.780;2023-03-23T05:28:19;99461.69;;;13.07;54.67
75609;BME280;64194;51.044;13.780;2023-03-23T05:32:38;99442.13;;;13.18;53.90
75609;BME280;64194;51.044;13.780;2023-03-23T05:36:55;99447.06;;;13.22;54.28
75609;BME280;64194;51.044;13.780;2023-03-23T05:41:10;99445.28;;;13.32;53.44
75609;BME280;64194;51.044;13.780;2023-03-23T05:45:14;99451.53;;;13.43;53.53
75609;BME280;64194;51.044;13.780;2023-03-23T05:49:18;99457.53;;;13.35;53.32
75609;BME280;64194;51.044;13.780;2023-03-23T05:53:20;99447.63;;;13.47;53.35
75609;BME280;64194;51.044;13.780;2023-03-23T05:57:21;99447.88;;;13.44;53.14
75609;BME280;64194;51.044;13.780;2023-03-23T06:01:30;99460.59;;;13.61;52.76
75609;BME280;64194;51.044;13.780;2023-03-23T06:05:32;99461.00;;;13.56;52.61
75609;BME280;64194;51.044;13.780;2023-03-23T06:09:33;99455.66;;;13.56;52.61
75609;BME280;64194;51.044;13.780;2023-03-23T06:14:03;99469.84;;;13.57;52.95
75609;BME280;64194;51.044;13.780;2023-03-23T06:18:04;99465.94;;;13.61;52.78
75609;BME280;64194;51.044;13.780;2023-03-23T06:22:15;99457.84;;;13.72;52.42
75609;BME280;64194;51.044;13.780;2023-03-23T06:26:35;99447.63;;;13.87;52.04
75609;BME280;64194;51.044;13.780;2023-03-23T06:30:40;99443.53;;;14.22;50.44
75609;BME280;64194;51.044;13.780;2023-03-23T06:34:41;99448.34;;;14.38;51.03
75609;BME280;64194;51.044;13.780;2023-03-23T06:39:06;99449.34;;;14.66;49.55
75609;BME280;64194;51.044;13.780;2023-03-23T06:43:21;99457.09;;;14.88;48.74
75609;BME280;64194;51.044;13.780;2023-03-23T06:47:28;99458.84;;;15.17;46.71
75609;BME280;64194;51.044;13.780;2023-03-23T06:51:33;99471.50;;;15.34;46.64
75609;BME280;64194;51.044;13.780;2023-03-23T06:55:34;99477.66;;;15.44;46.32
75609;BME280;64194;51.044;13.780;2023-03-23T06:59:37;99479.34;;;15.45;45.67
75609;BME280;64194;51.044;13.780;2023-03-23T07:03:39;99477.94;;;15.50;45.24
75609;BME280;64194;51.044;13.780;2023-03-23T07:07:43;99489.63;;;15.69;45.13
75609;BME280;64194;51.044;13.780;2023-03-23T07:12:05;99481.56;;;16.06;45.15
75609;BME280;64194;51.044;13.780;2023-03-23T07:16:13;99478.47;;;16.28;43.54
75609;BME280;64194;51.044;13.780;2023-03-23T07:20:14;99476.56;;;16.65;42.85
75609;BME280;64194;51.044;13.780;2023-03-23T07:24:16;99488.41;;;16.81;42.37
75609;BME280;64194;51.044;13.780;2023-03-23T07:28:32;99500.00;;;16.99;42.80
75609;BME280;64194;51.044;13.780;2023-03-23T07:32:40;99489.97;;;17.01;42.05
75609;BME280;64194;51.044;13.780;2023-03-23T07:36:41;99509.19;;;17.14;42.32
75609;BME280;64194;51.044;13.780;2023-03-23T07:40:45;99501.97;;;17.14;41.76
75609;BME280;64194;51.044;13.780;2023-03-23T07:44:58;99507.19;;;17.16;42.71
75609;BME280;64194;51.044;13.780;2023-03-23T07:48:59;99499.50;;;17.21;42.74
75609;BME280;64194;51.044;13.780;2023-03-23T07:53:12;99508.56;;;17.02;42.10
75609;BME280;64194;51.044;13.780;2023-03-23T07:57:14;99523.81;;;17.37;42.32
75609;BME280;64194;51.044;13.780;2023-03-23T08:01:35;99530.25;;;17.44;41.87
75609;BME280;64194;51.044;13.780;2023-03-23T08:06:01;99519.63;;;17.17;42.01
75609;BME280;64194;51.044;13.780;2023-03-23T08:10:36;99521.59;;;17.15;43.00
75609;BME280;64194;51.044;13.780;2023-03-23T08:15:05;99526.34;;;17.21;43.59
75609;BME280;64194;51.044;13.780;2023-03-23T08:19:31;99533.53;;;17.38;42.57
75609;BME280;64194;51.044;13.780;2023-03-23T08:24:00;99540.47;;;17.23;42.57
75609;BME280;64194;51.044;13.780;2023-03-23T08:28:55;99547.69;;;17.05;44.00
75609;BME280;64194;51.044;13.780;2023-03-23T08:33:30;99544.09;;;16.96;44.14
75609;BME280;64194;51.044;13.780;2023-03-23T08:38:44;99559.16;;;16.80;44.46
75609;BME280;64194;51.044;13.780;2023-03-23T08:43:12;99550.75;;;16.75;44.39
75609;BME280;64194;51.044;13.780;2023-03-23T08:47:36;99546.25;;;16.65;44.81
75609;BME280;64194;51.044;13.780;2023-03-23T08:51:55;99552.03;;;16.88;45.91
75609;BME280;64194;51.044;13.780;2023-03-23T08:56:11;99561.38;;;16.84;45.13
75609;BME280;64194;51.044;13.780;2023-03-23T09:00:31;99562.06;;;16.86;44.84
75609;BME280;64194;51.044;13.780;2023-03-23T09:05:35;99553.50;;;16.83;45.55
75609;BME280;64194;51.044;13.780;2023-03-23T09:10:19;99550.09;;;16.81;45.54
75609;BME280;64194;51.044;13.780;2023-03-23T09:14:40;99554.03;;;17.22;45.08
75609;BME280;64194;51.044;13.780;2023-03-23T09:18:40;99564.06;;;17.37;45.17
75609;BME280;64194;51.044;13.780;2023-03-23T09:22:44;99565.44;;;17.41;45.86
75609;BME280;64194;51.044;13.780;2023-03-23T09:26:45;99562.31;;;17.28;46.61
75609;BME280;64194;51.044;13.780;2023-03-23T09:30:47;99575.34;;;16.88;47.41
75609;BME280;64194;51.044;13.780;2023-03-23T09:34:48;99576.53;;;16.76;50.48
75609;BME280;64194;51.044;13.780;2023-03-23T09:38:48;99577.84;;;16.71;51.78
75609;BME280;64194;51.044;13.780;2023-03-23T09:42:58;99579.41;;;16.64;51.72
75609;BME280;64194;51.044;13.780;2023-03-23T09:47:23;99587.78;;;16.61;51.54
75609;BME280;64194;51.044;13.780;2023-03-23T09:51:45;99581.47;;;16.43;50.75
75609;BME280;64194;51.044;13.780;2023-03-23T09:55:47;99587.09;;;16.22;53.59
75609;BME280;64194;51.044;13.780;2023-03-23T10:00:10;99586.56;;;16.09;54.65
75609;BME280;64194;51.044;13.780;2023-03-23T10:04:26;99581.69;;;16.32;53.40
75609;BME280;64194;51.044;13.780;2023-03-23T10:08:30;99582.09;;;16.64;51.48
75609;BME280;64194;51.044;13.780;2023-03-23T10:12:40;99583.00;;;16.83;50.49
75609;BME280;64194;51.044;13.780;2023-03-23T10:16:55;99574.81;;;16.84;51.65
75609;BME280;64194;51.044;13.780;2023-03-23T10:20:59;99571.69;;;16.61;51.77
75609;BME280;64194;51.044;13.780;2023-03-23T10:29:15;99570.84;;;17.06;50.44
75609;BME280;64194;51.044;13.780;2023-03-23T10:33:38;99570.28;;;17.38;48.72
75609;BME280;64194;51.044;13.780;2023-03-23T10:37:44;99581.72;;;17.40;47.95
75609;BME280;64194;51.044;13.780;2023-03-23T10:41:47;99577.25;;;17.13;48.50
75609;BME280;64194;51.044;13.780;2023-03-23T10:45:56;99565.75;;;17.21;49.04
75609;BME280;64194;51.044;13.780;2023-03-23T10:49:59;99566.50;;;17.13;48.60
75609;BME280;64194;51.044;13.780;2023-03-23T10:54:03;99553.81;;;17.15;48.41
75609;BME280;64194;51.044;13.780;2023-03-23T10:58:10;99558.19;;;17.77;48.68
75609;BME280;64194;51.044;13.780;2023-03-23T11:02:17;99555.56;;;18.19;47.81
75609;BME280;64194;51.044;13.780;2023-03-23T11:06:22;99552.09;;;18.01;47.74
75609;BME280;64194;51.044;13.780;2023-03-23T11:10:36;99558.03;;;18.05;47.16
75609;BME280;64194;51.044;13.780;2023-03-23T11:14:37;99573.47;;;17.77;47.96
75609;BME280;64194;51.044;13.780;2023-03-23T11:18:42;99577.72;;;17.44;48.55
75609;BME280;64194;51.044;13.780;2023-03-23T11:22:46;99579.06;;;17.48;48.90
75609;BME280;64194;51.044;13.780;2023-03-23T11:26:47;99574.69;;;17.47;48.89
75609;BME280;64194;51.044;13.780;2023-03-23T11:30:53;99581.56;;;17.06;52.01
75609;BME280;64194;51.044;13.780;2023-03-23T11:34:58;99579.75;;;16.52;53.22
75609;BME280;64194;51.044;13.780;2023-03-23T11:38:59;99574.34;;;16.34;53.76
75609;BME280;64194;51.044;13.780;2023-03-23T11:43:13;99577.41;;;16.39;52.84
75609;BME280;64194;51.044;13.780;2023-03-23T11:47:39;99590.88;;;16.57;52.16
75609;BME280;64194;51.044;13.780;2023-03-23T11:51:45;99602.75;;;16.82;52.75
75609;BME280;64194;51.044;13.780;2023-03-23T11:56:11;99607.63;;;16.41;55.59
75609;BME280;64194;51.044;13.780;2023-03-23T12:00:20;99621.38;;;16.19;56.31
75609;BME280;64194;51.044;13.780;2023-03-23T12:04:49;99608.75;;;16.02;57.23
75609;BME280;64194;51.044;13.780;2023-03-23T12:09:11;99608.56;;;16.13;55.35
75609;BME280;64194;51.044;13.780;2023-03-23T12:27:01;99607.47;;;17.50;52.08
75609;BME280;64194;51.044;13.780;2023-03-23T12:35:59;99587.47;;;17.45;52.47
75609;BME280;64194;51.044;13.780;2023-03-23T12:50:09;99587.38;;;16.84;53.11
75609;BME280;64194;51.044;13.780;2023-03-23T12:55:35;99579.72;;;17.60;51.10
75609;BME280;64194;51.044;13.780;2023-03-23T12:59:59;99584.81;;;17.71;49.99
75609;BME280;64194;51.044;13.780;2023-03-23T13:05:11;99580.31;;;17.97;49.09
75609;BME280;64194;51.044;13.780;2023-03-23T13:09:40;99578.22;;;18.17;48.49
75609;BME280;64194;51.044;13.780;2023-03-23T13:24:05;99578.41;;;18.15;48.51
75609;BME280;64194;51.044;13.780;2023-03-23T13:28:21;99579.72;;;17.85;48.94
75609;BME280;64194;51.044;13.780;2023-03-23T13:32:49;99566.56;;;18.00;48.94
75609;BME280;64194;51.044;13.780;2023-03-23T13:37:29;99559.66;;;17.54;49.66
75609;BME280;64194;51.044;13.780;2023-03-23T13:46:29;99545.50;;;17.62;46.58
75609;BME280;64194;51.044;13.780;2023-03-23T13:50:54;99536.19;;;18.08;45.64
75609;BME280;64194;51.044;13.780;2023-03-23T13:55:40;99534.63;;;18.73;44.76
75609;BME280;64194;51.044;13.780;2023-03-23T14:04:36;99517.34;;;21.20;40.61
75609;BME280;64194;51.044;13.780;2023-03-23T14:08:39;99529.00;;;26.75;30.44
75609;BME280;64194;51.044;13.780;2023-03-23T14:12:41;99520.41;;;28.69;26.02
75609;BME280;64194;51.044;13.780;2023-03-23T14:25:30;99515.25;;;27.64;27.79
75609;BME280;64194;51.044;13.780;2023-03-23T14:29:33;99509.19;;;25.70;30.22
75609;BME280;64194;51.044;13.780;2023-03-23T14:33:39;99518.94;;;23.06;36.74
75609;BME280;64194;51.044;13.780;2023-03-23T14:38:00;99532.25;;;20.55;39.21
75609;BME280;64194;51.044;13.780;2023-03-23T14:42:28;99541.25;;;20.31;39.90
75609;BME280;64194;51.044;13.780;2023-03-23T14:46:31;99536.53;;;19.37;42.04
75609;BME280;64194;51.044;13.780;2023-03-23T14:50:37;99543.75;;;18.96;43.42
75609;BME280;64194;51.044;13.780;2023-03-23T14:54:39;99526.28;;;18.50;44.16
75609;BME280;64194;51.044;13.780;2023-03-23T14:59:05;99534.47;;;18.32;50.07
75609;BME280;64194;51.044;13.780;2023-03-23T15:03:29;99536.69;;;18.11;45.87
75609;BME280;64194;51.044;13.780;2023-03-23T15:08:07;99538.09;;;18.15;46.25
75609;BME280;64194;51.044;13.780;2023-03-23T15:13:11;99535.03;;;18.10;47.34
75609;BME280;64194;51.044;13.780;2023-03-23T15:17:38;99532.28;;;17.94;46.61
75609;BME280;64194;51.044;13.780;2023-03-23T15:22:18;99526.63;;;17.79;46.95
75609;BME280;64194;51.044;13.780;2023-03-23T15:27:17;99531.22;;;17.87;48.71
75609;BME280;64194;51.044;13.780;2023-03-23T15:31:43;99530.72;;;17.91;46.96
75609;BME280;64194;51.044;13.780;2023-03-23T15:36:22;99549.78;;;17.54;47.72
75609;BME280;64194;51.044;13.780;2023-03-23T15:40:43;99560.81;;;17.51;51.43
75609;BME280;64194;51.044;13.780;2023-03-23T15:49:14;99564.44;;;17.25;47.53
75609;BME280;64194;51.044;13.780;2023-03-23T15:53:51;99564.25;;;17.18;47.89
75609;BME280;64194;51.044;13.780;2023-03-23T15:58:12;99564.38;;;17.17;47.82
75609;BME280;64194;51.044;13.780;2023-03-23T16:02:34;99572.59;;;17.15;48.16
75609;BME280;64194;51.044;13.780;2023-03-23T16:07:35;99584.31;;;17.14;49.84
75609;BME280;64194;51.044;13.780;2023-03-23T16:11:38;99587.00;;;16.96;50.68
75609;BME280;64194;51.044;13.780;2023-03-23T16:15:40;99565.75;;;17.03;52.19
75609;BME280;64194;51.044;13.780;2023-03-23T16:19:42;99572.94;;;17.02;48.69
75609;BME280;64194;51.044;13.780;2023-03-23T16:23:44;99579.09;;;16.95;48.07
75609;BME280;64194;51.044;13.780;2023-03-23T16:28:13;99580.97;;;17.12;52.54
75609;BME280;64194;51.044;13.780;2023-03-23T16:32:15;99598.03;;;16.93;48.22
75609;BME280;64194;51.044;13.780;2023-03-23T16:36:16;99609.91;;;16.91;48.27
75609;BME280;64194;51.044;13.780;2023-03-23T16:40:38;99609.94;;;16.81;49.38
75609;BME280;64194;51.044;13.780;2023-03-23T16:44:39;99602.47;;;16.85;52.84
75609;BME280;64194;51.044;13.780;2023-03-23T16:48:41;99611.72;;;16.72;48.57
75609;BME280;64194;51.044;13.780;2023-03-23T16:53:04;99605.50;;;16.72;51.13
75609;BME280;64194;51.044;13.780;2023-03-23T16:57:06;99619.13;;;16.51;49.86
75609;BME280;64194;51.044;13.780;2023-03-23T17:01:08;99618.06;;;16.35;50.41
75609;BME280;64194;51.044;13.780;2023-03-23T17:05:10;99617.94;;;16.36;53.73
75609;BME280;64194;51.044;13.780;2023-03-23T17:09:12;99621.88;;;16.32;56.39
75609;BME280;64194;51.044;13.780;2023-03-23T17:13:14;99617.53;;;16.21;52.42
75609;BME280;64194;51.044;13.780;2023-03-23T17:17:15;99611.66;;;16.18;54.36
75609;BME280;64194;51.044;13.780;2023-03-23T17:21:17;99629.75;;;15.97;54.71
75609;BME280;64194;51.044;13.780;2023-03-23T17:25:20;99649.22;;;15.79;53.16
75609;BME280;64194;51.044;13.780;2023-03-23T17:29:22;99643.88;;;15.79;54.30
75609;BME280;64194;51.044;13.780;2023-03-23T17:33:24;99636.25;;;15.84;53.48
75609;BME280;64194;51.044;13.780;2023-03-23T17:37:25;99643.34;;;15.76;56.02
75609;BME280;64194;51.044;13.780;2023-03-23T17:41:27;99637.13;;;15.56;57.52
75609;BME280;64194;51.044;13.780;2023-03-23T17:45:29;99653.44;;;15.34;55.33
75609;BME280;64194;51.044;13.780;2023-03-23T17:49:31;99641.75;;;15.16;57.28
75609;BME280;64194;51.044;13.780;2023-03-23T17:53:33;99650.31;;;15.00;56.24
75609;BME280;64194;51.044;13.780;2023-03-23T17:57:38;99649.41;;;14.80;57.19
75609;BME280;64194;51.044;13.780;2023-03-23T18:01:40;99650.09;;;14.73;57.78
75609;BME280;64194;51.044;13.780;2023-03-23T18:05:41;99662.56;;;14.62;58.48
75609;BME280;64194;51.044;13.780;2023-03-23T18:09:43;99664.53;;;14.51;59.12
75609;BME280;64194;51.044;13.780;2023-03-23T18:13:46;99661.44;;;14.35;59.85
75609;BME280;64194;51.044;13.780;2023-03-23T18:17:48;99665.19;;;14.22;60.75
75609;BME280;64194;51.044;13.780;2023-03-23T18:21:51;99678.63;;;14.11;61.29
75609;BME280;64194;51.044;13.780;2023-03-23T18:25:53;99672.63;;;13.98;61.91
75609;BME280;64194;51.044;13.780;2023-03-23T18:29:55;99675.13;;;13.90;62.37
75609;BME280;64194;51.044;13.780;2023-03-23T18:33:57;99661.56;;;13.82;63.33
75609;BME280;64194;51.044;13.780;2023-03-23T18:37:58;99667.94;;;13.70;63.71
75609;BME280;64194;51.044;13.780;2023-03-23T18:42:00;99667.13;;;13.58;63.55
75609;BME280;64194;51.044;13.780;2023-03-23T18:46:02;99660.75;;;13.50;64.04
75609;BME280;64194;51.044;13.780;2023-03-23T18:50:06;99653.16;;;13.45;64.37
75609;BME280;64194;51.044;13.780;2023-03-23T18:54:08;99661.53;;;13.40;64.66
75609;BME280;64194;51.044;13.780;2023-03-23T18:58:11;99665.16;;;13.39;64.93
75609;BME280;64194;51.044;13.780;2023-03-23T19:02:14;99662.16;;;13.33;65.16
75609;BME280;64194;51.044;13.780;2023-03-23T19:06:24;99671.28;;;13.30;65.28
75609;BME280;64194;51.044;13.780;2023-03-23T19:10:26;99673.22;;;13.28;65.19
75609;BME280;64194;51.044;13.780;2023-03-23T19:14:28;99668.50;;;13.21;65.48
75609;BME280;64194;51.044;13.780;2023-03-23T19:18:30;99662.94;;;13.24;65.32
75609;BME280;64194;51.044;13.780;2023-03-23T19:22:32;99661.34;;;13.21;65.29
75609;BME280;64194;51.044;13.780;2023-03-23T19:26:41;99663.03;;;13.22;64.93
75609;BME280;64194;51.044;13.780;2023-03-23T19:30:45;99656.28;;;13.18;65.22
75609;BME280;64194;51.044;13.780;2023-03-23T19:34:48;99652.88;;;13.16;65.31
75609;BME280;64194;51.044;13.780;2023-03-23T19:38:52;99655.53;;;13.05;65.48
75609;BME280;64194;51.044;13.780;2023-03-23T19:42:54;99642.25;;;12.94;66.24
75609;BME280;64194;51.044;13.780;2023-03-23T19:46:58;99652.06;;;12.93;65.96
75609;BME280;64194;51.044;13.780;2023-03-23T19:51:00;99652.94;;;12.83;66.99
75609;BME280;64194;51.044;13.780;2023-03-23T19:55:03;99650.75;;;12.77;66.88
75609;BME280;64194;51.044;13.780;2023-03-23T19:59:04;99658.03;;;12.75;67.01
75609;BME280;64194;51.044;13.780;2023-03-23T20:03:09;99662.13;;;12.90;66.56
75609;BME280;64194;51.044;13.780;2023-03-23T20:07:10;99648.19;;;12.97;65.88
75609;BME280;64194;51.044;13.780;2023-03-23T20:11:15;99653.84;;;13.04;65.84
75609;BME280;64194;51.044;13.780;2023-03-23T20:15:18;99660.28;;;13.02;66.43
75609;BME280;64194;51.044;13.780;2023-03-23T20:19:19;99655.94;;;13.00;66.80
75609;BME280;64194;51.044;13.780;2023-03-23T20:23:21;99658.94;;;13.07;66.21
75609;BME280;64194;51.044;13.780;2023-03-23T20:27:23;99656.00;;;13.10;66.24
75609;BME280;64194;51.044;13.780;2023-03-23T20:31:28;99655.31;;;13.08;66.12
75609;BME280;64194;51.044;13.780;2023-03-23T20:35:30;99661.25;;;13.12;65.81
75609;BME280;64194;51.044;13.780;2023-03-23T20:39:32;99659.41;;;13.23;65.10
75609;BME280;64194;51.044;13.780;2023-03-23T20:43:34;99660.00;;;13.27;64.65
75609;BME280;64194;51.044;13.780;2023-03-23T20:47:37;99670.81;;;13.25;65.16
75609;BME280;64194;51.044;13.780;2023-03-23T20:51:38;99675.63;;;13.31;65.25
75609;BME280;64194;51.044;13.780;2023-03-23T20:55:40;99677.97;;;13.25;64.86
75609;BME280;64194;51.044;13.780;2023-03-23T20:59:42;99666.69;;;13.21;65.32
75609;BME280;64194;51.044;13.780;2023-03-23T21:03:43;99663.31;;;13.19;65.26
75609;BME280;64194;51.044;13.780;2023-03-23T21:08:05;99660.66;;;13.08;65.80
75609;BME280;64194;51.044;13.780;2023-03-23T21:12:08;99657.25;;;13.17;65.12
75609;BME280;64194;51.044;13.780;2023-03-23T21:16:29;99658.28;;;13.26;64.90
75609;BME280;64194;51.044;13.780;2023-03-23T21:20:38;99657.56;;;13.35;64.20
75609;BME280;64194;51.044;13.780;2023-03-23T21:25:00;99651.72;;;13.41;64.23
75609;BME280;64194;51.044;13.780;2023-03-23T21:29:03;99654.00;;;13.46;63.94
75609;BME280;64194;51.044;13.780;2023-03-23T21:33:25;99638.00;;;13.46;63.38
75609;BME280;64194;51.044;13.780;2023-03-23T21:37:50;99625.88;;;13.42;63.70
75609;BME280;64194;51.044;13.780;2023-03-23T21:42:32;99622.91;;;13.56;63.65
75609;BME280;64194;51.044;13.780;2023-03-23T21:46:33;99622.09;;;13.65;62.26
75609;BME280;64194;51.044;13.780;2023-03-23T21:50:36;99625.00;;;13.73;61.68
75609;BME280;64194;51.044;13.780;2023-03-23T21:54:59;99610.91;;;13.71;61.90
75609;BME280;64194;51.044;13.780;2023-03-23T21:59:06;99620.75;;;13.70;62.04
75609;BME280;64194;51.044;13.780;2023-03-23T22:03:08;99612.09;;;13.78;61.90
75609;BME280;64194;51.044;13.780;2023-03-23T22:07:10;99612.63;;;13.72;62.12
75609;BME280;64194;51.044;13.780;2023-03-23T22:11:29;99617.69;;;13.75;61.66
75609;BME280;64194;51.044;13.780;2023-03-23T22:15:39;99618.22;;;13.69;62.14
75609;BME280;64194;51.044;13.780;2023-03-23T22:19:40;99611.44;;;13.65;62.27
75609;BME280;64194;51.044;13.780;2023-03-23T22:23:43;99604.16;;;13.67;61.96
75609;BME280;64194;51.044;13.780;2023-03-23T22:27:46;99597.41;;;13.63;62.25
75609;BME280;64194;51.044;13.780;2023-03-23T22:31:48;99595.88;;;13.70;61.81
75609;BME280;64194;51.044;13.780;2023-03-23T22:35:49;99597.69;;;13.69;61.81
75609;BME280;64194;51.044;13.780;2023-03-23T22:39:51;99590.28;;;13.73;61.86
75609;BME280;64194;51.044;13.780;2023-03-23T22:43:53;99595.34;;;13.76;61.75
75609;BME280;64194;51.044;13.780;2023-03-23T22:47:55;99569.97;;;13.81;61.64
75609;BME280;64194;51.044;13.780;2023-03-23T22:52:17;99573.69;;;13.90;61.35
75609;BME280;64194;51.044;13.780;2023-03-23T22:56:19;99560.19;;;13.92;61.30
75609;BME280;64194;51.044;13.780;2023-03-23T23:00:42;99553.28;;;13.89;60.79
75609;BME280;64194;51.044;13.780;2023-03-23T23:04:47;99549.50;;;13.92;61.15
75609;BME280;64194;51.044;13.780;2023-03-23T23:08:48;99547.44;;;13.95;60.76
75609;BME280;64194;51.044;13.780;2023-03-23T23:12:50;99544.03;;;13.93;60.94
75609;BME280;64194;51.044;13.780;2023-03-23T23:16:54;99536.44;;;13.89;60.94